Time;durP1;ratioP1;P1;durP2;ratioP2;P2;SDS_P1;SDS_P2;PMS_P1;PMS_P2;Temp;Humidity;BMP_temperature;BMP_pressure;BME280_temperature;BME280_humidity;BME280_pressure;Samples;Min_cycle;Max_cycle;Signal;HPM_P1;HPM_P2
2022/09/13 00:02:18;;;;;;;6.05;3.35;;;;;;;12.69;99.78;99464.14;1645729;83;21039;-61
2022/09/13 00:04:48;;;;;;;4.58;2.87;;;;;;;12.70;99.78;99461.70;1697323;83;21122;-62
2022/09/13 00:07:18;;;;;;;4.42;3.20;;;;;;;12.70;99.90;99453.45;1715238;82;21024;-62
2022/09/13 00:09:48;;;;;;;3.83;3.05;;;;;;;12.74;99.97;99457.41;1718151;83;21452;-62
2022/09/13 00:12:17;;;;;;;5.78;3.83;;;;;;;12.76;100.00;99457.17;1703718;83;21035;-63
2022/09/13 00:14:48;;;;;;;7.42;4.20;;;;;;;12.76;99.98;99454.42;1695103;83;21046;-63
2022/09/13 00:17:18;;;;;;;5.92;4.12;;;;;;;12.73;99.97;99448.86;1717706;83;21436;-63
2022/09/13 00:19:48;;;;;;;5.83;3.80;;;;;;;12.73;100.00;99449.39;1717815;82;21039;-62
2022/09/13 00:22:18;;;;;;;6.40;4.08;;;;;;;12.72;100.00;99447.19;1717669;83;21023;-62
2022/09/13 00:24:47;;;;;;;4.97;3.65;;;;;;;12.72;100.00;99450.47;1705682;83;20995;-63
2022/09/13 00:27:16;;;;;;;5.40;3.60;;;;;;;12.72;100.00;99452.68;1718161;83;21035;-64
2022/09/13 00:29:46;;;;;;;5.20;3.40;;;;;;;12.73;100.00;99448.86;1706932;83;21030;-62
2022/09/13 00:32:15;;;;;;;7.70;4.05;;;;;;;12.76;100.00;99444.27;1705319;82;21079;-62
2022/09/13 00:34:44;;;;;;;5.75;4.17;;;;;;;12.78;100.00;99444.03;1706560;82;21115;-63
2022/09/13 00:37:14;;;;;;;8.15;4.10;;;;;;;12.76;100.00;99444.27;1716484;82;21047;-60
2022/09/13 00:39:43;;;;;;;5.50;3.72;;;;;;;12.73;100.00;99453.52;1702211;83;21034;-61
2022/09/13 00:42:14;;;;;;;8.75;3.90;;;;;;;12.72;100.00;99453.22;1716137;83;21023;-61
2022/09/13 00:45:12;;;;;;;4.62;3.67;;;;;;;12.69;100.00;99449.02;1715810;83;21007;-62
2022/09/13 00:47:54;;;;;;;5.65;4.10;;;;;;;12.68;100.00;99447.34;1711303;83;21109;-60
2022/09/13 00:50:39;;;;;;;5.55;4.08;;;;;;;12.69;100.00;99447.11;1710937;82;21058;-61
2022/09/13 00:53:24;;;;;;;6.08;4.25;;;;;;;12.67;100.00;99447.88;1720009;82;21066;-62
2022/09/13 00:56:17;;;;;;;7.28;4.30;;;;;;;12.68;100.00;99445.97;1722107;83;21007;-62
2022/09/13 00:58:51;;;;;;;7.70;4.17;;;;;;;12.70;100.00;99445.20;1698001;83;21007;-60
2022/09/13 01:01:22;;;;;;;6.10;4.12;;;;;;;12.72;100.00;99446.34;1720665;83;21039;-63
2022/09/13 01:03:52;;;;;;;6.50;4.10;;;;;;;12.71;100.00;99449.63;1727773;82;21086;-60
2022/09/13 01:06:28;;;;;;;7.10;4.30;;;;;;;12.74;100.00;99448.32;1728083;83;21105;-62
2022/09/13 01:09:02;;;;;;;7.50;4.40;;;;;;;12.77;100.00;99447.84;1710569;83;21500;-61
2022/09/13 01:11:54;;;;;;;5.30;4.08;;;;;;;12.79;100.00;99445.17;1697696;83;21043;-61
2022/09/13 01:14:22;;;;;;;8.83;4.53;;;;;;;12.78;100.00;99443.48;1704582;83;21034;-62
2022/09/13 01:16:53;;;;;;;6.35;4.30;;;;;;;12.78;100.00;99444.03;1710119;83;21046;-61
2022/09/13 01:19:23;;;;;;;5.40;4.08;;;;;;;12.79;100.00;99445.17;1707736;83;21066;-62
2022/09/13 01:22:17;;;;;;;4.70;3.87;;;;;;;12.80;100.00;99441.34;1727980;83;21054;-61
2022/09/13 01:25:17;;;;;;;5.58;4.03;;;;;;;12.80;100.00;99445.47;1727820;81;21046;-61
2022/09/13 01:28:09;;;;;;;5.90;3.85;;;;;;;12.82;100.00;99438.36;1713308;82;21531;-61
2022/09/13 01:30:53;;;;;;;5.70;3.75;;;;;;;12.82;100.00;99440.57;1697891;83;21070;-62
2022/09/13 01:34:01;;;;;;;6.03;4.37;;;;;;;12.84;100.00;99432.92;1711401;83;21063;-62
2022/09/13 01:36:43;;;;;;;5.83;3.87;;;;;;;12.85;100.00;99441.47;1665455;83;21125;-62
2022/09/13 01:39:21;;;;;;;5.67;4.10;;;;;;;12.85;100.00;99434.60;1727810;83;21062;-62
2022/09/13 01:42:17;;;;;;;5.65;4.17;;;;;;;12.84;100.00;99433.47;1672456;83;21039;-61
2022/09/13 01:45:08;;;;;;;6.92;4.45;;;;;;;12.85;100.00;99435.98;1699124;83;21038;-63
2022/09/13 01:48:05;;;;;;;6.65;4.58;;;;;;;12.87;100.00;99433.83;1716587;83;21051;-61
2022/09/13 01:50:44;;;;;;;8.10;4.72;;;;;;;12.86;100.00;99436.28;1727866;81;21059;-62
2022/09/13 01:53:35;;;;;;;8.40;5.10;;;;;;;12.88;100.00;99438.25;1716584;83;21031;-61
2022/09/13 01:56:23;;;;;;;7.85;4.85;;;;;;;12.91;100.00;99434.20;1702593;83;21042;-61
2022/09/13 01:59:02;;;;;;;8.13;5.03;;;;;;;12.94;100.00;99433.72;1714334;83;21055;-62
2022/09/13 02:01:37;;;;;;;7.90;5.67;;;;;;;12.96;100.00;99432.41;1710690;83;21071;-63
2022/09/13 02:04:13;;;;;;;7.85;5.58;;;;;;;12.98;100.00;99433.01;1710951;83;21070;-65
2022/09/13 02:07:06;;;;;;;8.43;5.50;;;;;;;13.01;100.00;99423.48;1721443;81;21102;-61
2022/09/13 02:09:39;;;;;;;9.05;5.85;;;;;;;13.03;100.00;99430.12;1728296;83;21463;-61
2022/09/13 02:12:19;;;;;;;10.68;6.12;;;;;;;13.03;100.00;99437.83;1715779;83;21054;-63
2022/09/13 02:14:54;;;;;;;8.20;5.97;;;;;;;13.05;100.00;99430.18;1715622;83;20999;-62
2022/09/13 02:17:27;;;;;;;7.10;5.28;;;;;;;13.07;100.00;99434.91;1717457;83;21428;-61
2022/09/13 02:19:59;;;;;;;8.15;5.50;;;;;;;13.06;100.00;99429.64;1728069;82;21029;-64
2022/09/13 02:22:34;;;;;;;9.93;6.00;;;;;;;13.07;100.00;99436.81;1718083;83;21007;-61
2022/09/13 02:25:11;;;;;;;9.23;5.87;;;;;;;13.05;100.00;99438.43;1702340;83;21043;-61
2022/09/13 02:27:43;;;;;;;8.50;5.92;;;;;;;13.05;100.00;99430.72;1698141;83;21046;-61
2022/09/13 02:30:13;;;;;;;10.08;6.20;;;;;;;13.03;100.00;99435.62;1712505;83;21070;-63
2022/09/13 02:33:05;;;;;;;9.10;6.17;;;;;;;13.03;100.00;99430.95;1728439;82;21058;-62
2022/09/13 02:36:01;;;;;;;7.50;5.53;;;;;;;13.03;100.00;99432.33;1704894;83;21071;-61
2022/09/13 02:38:34;;;;;;;7.55;5.72;;;;;;;13.04;100.00;99431.79;1711179;82;21078;-64
2022/09/13 02:41:39;;;;;;;8.08;5.25;;;;;;;13.04;100.00;99433.16;1710499;83;21057;-64
2022/09/13 02:44:34;;;;;;;8.50;5.45;;;;;;;13.04;100.00;99434.54;1723180;81;21110;-62
2022/09/13 02:47:12;;;;;;;7.65;5.30;;;;;;;13.03;100.00;99433.70;1710248;83;21102;-62
2022/09/13 02:50:01;;;;;;;6.40;4.45;;;;;;;13.04;100.00;99433.16;1705799;83;21030;-61
2022/09/13 02:52:51;;;;;;;8.25;5.05;;;;;;;13.05;100.00;99432.09;1714812;81;21070;-60
2022/09/13 02:55:34;;;;;;;7.45;4.75;;;;;;;13.03;100.00;99430.95;1713269;83;21094;-61
2022/09/13 02:58:27;;;;;;;7.83;4.42;;;;;;;13.04;100.00;99425.75;1708961;83;21082;-62
2022/09/13 03:00:57;;;;;;;7.65;4.55;;;;;;;13.04;100.00;99429.05;1720349;81;21034;-63
2022/09/13 03:03:26;;;;;;;5.58;4.00;;;;;;;13.04;100.00;99431.79;1703059;83;21031;-62
2022/09/13 03:05:56;;;;;;;4.85;4.05;;;;;;;13.04;100.00;99427.13;1728147;82;21418;-61
2022/09/13 03:08:25;;;;;;;5.75;4.08;;;;;;;13.06;100.00;99423.60;1700751;83;21038;-62
2022/09/13 03:11:23;;;;;;;6.12;3.83;;;;;;;13.06;100.00;99421.39;1698044;83;21073;-62
2022/09/13 03:14:25;;;;;;;4.15;3.47;;;;;;;13.02;100.00;99419.66;1729455;82;21015;-62
2022/09/13 03:17:31;;;;;;;5.42;3.70;;;;;;;13.04;100.00;99418.05;1727935;83;21035;-61
2022/09/13 03:20:11;;;;;;;5.12;4.00;;;;;;;13.01;100.00;99413.32;1727529;81;21082;-61
2022/09/13 03:22:54;;;;;;;4.80;3.80;;;;;;;13.00;100.00;99414.90;1727960;82;21106;-60
2022/09/13 03:25:44;;;;;;;6.97;3.60;;;;;;;12.98;100.00;99418.42;1727344;81;21094;-63
2022/09/13 03:28:36;;;;;;;6.42;4.20;;;;;;;12.96;100.00;99420.03;1720250;83;21010;-62
2022/09/13 03:31:27;;;;;;;5.40;3.98;;;;;;;12.99;100.00;99425.59;1719310;82;21023;-61
2022/09/13 03:34:04;;;;;;;5.03;4.17;;;;;;;12.98;100.00;99427.51;1718099;83;21078;-61
2022/09/13 03:36:43;;;;;;;8.28;4.95;;;;;;;13.01;100.00;99424.31;1656734;83;21094;-61
2022/09/13 03:39:23;;;;;;;7.30;4.70;;;;;;;13.02;100.00;99427.91;1705531;83;21508;-61
2022/09/13 03:41:56;;;;;;;6.72;4.28;;;;;;;13.03;100.00;99431.49;1718082;82;21424;-62
2022/09/13 03:44:25;;;;;;;5.40;4.03;;;;;;;13.04;100.00;99427.67;1705664;83;21079;-62
2022/09/13 03:46:57;;;;;;;8.15;4.10;;;;;;;13.04;100.00;99427.67;1706242;83;21070;-61
2022/09/13 03:49:26;;;;;;;5.83;4.10;;;;;;;13.05;100.00;99434.84;1717828;83;21106;-62
2022/09/13 03:51:57;;;;;;;8.85;4.58;;;;;;;13.03;100.00;99435.08;1712301;82;21471;-61
2022/09/13 03:54:31;;;;;;;5.90;4.17;;;;;;;13.00;100.00;99435.02;1700400;83;21015;-62
2022/09/13 03:57:19;;;;;;;7.95;4.22;;;;;;;13.04;100.00;99437.29;1695034;83;21501;-62
2022/09/13 03:59:53;;;;;;;5.87;4.10;;;;;;;13.05;100.00;99436.22;1717792;83;20991;-63
2022/09/13 04:02:24;;;;;;;6.70;4.60;;;;;;;13.00;100.00;99440.52;1695562;82;21028;-62
2022/09/13 04:04:55;;;;;;;6.47;4.80;;;;;;;12.97;100.00;99446.99;1700759;82;21074;-61
2022/09/13 04:07:24;;;;;;;6.67;4.83;;;;;;;12.96;100.00;99450.28;1688407;83;21003;-67
2022/09/13 04:09:56;;;;;;;9.68;5.10;;;;;;;12.95;100.00;99449.98;1716241;83;21075;-62
2022/09/13 04:12:29;;;;;;;11.10;6.08;;;;;;;12.97;100.00;99452.49;1705804;83;21047;-62
2022/09/13 04:14:58;;;;;;;11.38;6.50;;;;;;;12.95;100.00;99454.11;1689079;83;21106;-62
2022/09/13 04:17:28;;;;;;;14.80;6.28;;;;;;;12.95;100.00;99453.27;1692148;83;21098;-60
2022/09/13 04:19:58;;;;;;;11.33;6.35;;;;;;;12.91;100.00;99450.15;1693161;83;21052;-61
2022/09/13 04:22:28;;;;;;;8.90;6.05;;;;;;;12.88;100.00;99457.50;1707872;83;21070;-61
2022/09/13 04:24:59;;;;;;;11.83;6.28;;;;;;;12.89;100.00;99455.59;1715788;82;21091;-62
2022/09/13 04:27:31;;;;;;;11.88;6.45;;;;;;;12.86;100.00;99460.18;1717923;82;21034;-62
2022/09/13 04:30:01;;;;;;;13.25;5.70;;;;;;;12.85;100.00;99456.59;1705154;83;21110;-61
2022/09/13 04:32:32;;;;;;;11.25;6.17;;;;;;;12.88;100.00;99459.41;1717313;82;21086;-62
2022/09/13 04:35:01;;;;;;;11.35;7.17;;;;;;;12.85;100.00;99453.84;1705185;83;21054;-62
2022/09/13 04:37:31;;;;;;;13.90;7.22;;;;;;;12.84;100.00;99457.67;1705811;83;21525;-62
2022/09/13 04:40:01;;;;;;;11.45;6.55;;;;;;;12.82;100.00;99458.98;1695279;83;21087;-63
2022/09/13 04:42:32;;;;;;;10.88;7.30;;;;;;;12.83;100.00;99455.99;1707429;83;21113;-61
2022/09/13 04:45:01;;;;;;;15.40;7.17;;;;;;;12.84;100.00;99464.54;1725144;83;21060;-63
2022/09/13 04:47:32;;;;;;;14.03;7.55;;;;;;;12.80;100.00;99457.84;1698057;83;21058;-62
2022/09/13 04:50:02;;;;;;;12.60;6.92;;;;;;;12.77;100.00;99460.22;1712258;83;21434;-62
2022/09/13 04:52:32;;;;;;;15.35;7.42;;;;;;;12.78;100.00;99475.10;1698447;83;21035;-61
2022/09/13 04:55:02;;;;;;;14.90;7.75;;;;;;;12.79;100.00;99463.57;1725213;83;21475;-62
2022/09/13 04:57:31;;;;;;;14.87;7.30;;;;;;;12.83;100.00;99473.02;1707209;83;21075;-61
2022/09/13 05:00:03;;;;;;;12.88;7.47;;;;;;;12.84;100.00;99461.80;1710661;83;21504;-61
2022/09/13 05:02:33;;;;;;;18.07;7.78;;;;;;;12.84;100.00;99468.66;1705825;83;21497;-62
2022/09/13 05:05:03;;;;;;;14.73;7.62;;;;;;;12.86;100.00;99475.30;1715425;83;21039;-63
2022/09/13 05:07:34;;;;;;;11.83;7.45;;;;;;;12.82;100.00;99473.56;1715725;83;21026;-61
2022/09/13 05:10:04;;;;;;;11.90;6.87;;;;;;;12.80;100.00;99469.37;1702860;83;21043;-62
2022/09/13 05:12:34;;;;;;;12.68;7.53;;;;;;;12.81;100.00;99466.92;1718359;83;21019;-64
2022/09/13 05:15:05;;;;;;;10.50;7.05;;;;;;;12.80;100.00;99472.95;1715712;83;21038;-62
2022/09/13 05:17:35;;;;;;;13.62;6.90;;;;;;;12.76;100.00;99474.50;1708103;81;21055;-63
2022/09/13 05:20:05;;;;;;;13.85;6.90;;;;;;;12.76;100.00;99478.62;1698029;83;21108;-62
2022/09/13 05:22:34;;;;;;;11.18;6.80;;;;;;;12.76;100.00;99478.62;1714807;83;21520;-62
2022/09/13 05:25:04;;;;;;;10.65;6.62;;;;;;;12.74;100.00;99479.39;1703098;83;21109;-64
2022/09/13 05:27:34;;;;;;;13.05;7.80;;;;;;;12.74;100.00;99484.89;1717015;83;21512;-62
2022/09/13 05:30:06;;;;;;;13.55;7.75;;;;;;;12.75;100.00;99474.20;1727645;82;21540;-62
2022/09/13 05:32:36;;;;;;;11.93;7.35;;;;;;;12.75;100.00;99478.32;1715989;81;21019;-62
2022/09/13 05:35:08;;;;;;;12.98;7.62;;;;;;;12.75;100.00;99476.11;1727800;83;21050;-62
2022/09/13 05:37:39;;;;;;;11.57;8.13;;;;;;;12.69;100.00;99480.63;1717466;82;21084;-62
2022/09/13 05:40:09;;;;;;;11.65;7.80;;;;;;;12.64;100.00;99488.73;1702968;83;21087;-63
2022/09/13 05:42:41;;;;;;;12.00;7.78;;;;;;;12.61;100.00;99485.08;1717251;82;21101;-63
2022/09/13 05:45:13;;;;;;;13.88;7.55;;;;;;;12.59;100.00;99487.23;1727343;81;21061;-63
2022/09/13 05:47:44;;;;;;;10.40;7.58;;;;;;;12.62;100.00;99486.77;1721499;81;21447;-62
2022/09/13 05:50:14;;;;;;;14.50;8.23;;;;;;;12.63;100.00;99492.56;1711138;82;21482;-64
2022/09/13 05:52:54;;;;;;;11.50;7.20;;;;;;;12.64;100.00;99498.36;1724855;83;21054;-62
2022/09/13 05:55:26;;;;;;;12.60;6.85;;;;;;;12.60;100.00;99495.77;1705571;82;21106;-63
2022/09/13 05:57:55;;;;;;;13.32;7.30;;;;;;;12.60;100.00;99501.27;1706583;83;21006;-62
2022/09/13 06:00:25;;;;;;;12.63;7.08;;;;;;;12.61;100.00;99503.78;1714141;83;21070;-65
2022/09/13 06:02:56;;;;;;;10.75;7.03;;;;;;;12.64;100.00;99506.60;1710649;83;21035;-65
2022/09/13 06:05:26;;;;;;;12.43;7.70;;;;;;;12.60;100.00;99506.77;1724464;83;21035;-63
2022/09/13 06:07:58;;;;;;;11.22;7.12;;;;;;;12.60;100.00;99515.01;1728252;83;21023;-63
2022/09/13 06:10:28;;;;;;;11.18;7.20;;;;;;;12.61;100.00;99520.27;1713818;82;21098;-63
2022/09/13 06:12:59;;;;;;;12.35;6.50;;;;;;;12.60;100.00;99521.88;1710576;83;21038;-63
2022/09/13 06:15:31;;;;;;;11.65;6.92;;;;;;;12.60;100.00;99526.84;1698303;83;21030;-63
2022/09/13 06:18:01;;;;;;;10.40;6.40;;;;;;;12.58;100.00;99522.65;1718379;83;21072;-61
2022/09/13 06:20:31;;;;;;;11.38;7.10;;;;;;;12.55;100.00;99524.48;1702768;83;21034;-62
2022/09/13 06:23:00;;;;;;;10.53;7.55;;;;;;;12.54;100.00;99520.06;1728146;83;21066;-61
2022/09/13 06:25:30;;;;;;;9.35;6.12;;;;;;;12.53;100.00;99527.47;1727214;82;21489;-62
2022/09/13 06:28:00;;;;;;;10.45;6.28;;;;;;;12.53;100.00;99523.88;1716821;83;21050;-62
2022/09/13 06:30:30;;;;;;;9.30;6.47;;;;;;;12.51;100.00;99532.89;1727464;81;21062;-65
2022/09/13 06:33:00;;;;;;;10.45;6.17;;;;;;;12.51;100.00;99529.61;1705188;83;21066;-62
2022/09/13 06:35:30;;;;;;;9.83;6.03;;;;;;;12.49;100.00;99532.28;1703090;83;21541;-65
2022/09/13 06:38:00;;;;;;;9.88;7.05;;;;;;;12.49;100.00;99536.41;1717531;81;21047;-63
2022/09/13 06:40:31;;;;;;;9.10;6.60;;;;;;;12.48;100.00;99534.73;1726525;83;21055;-64
2022/09/13 06:43:01;;;;;;;8.88;5.65;;;;;;;12.50;100.00;99534.80;1708556;83;21486;-64
2022/09/13 06:45:31;;;;;;;10.18;5.90;;;;;;;12.51;100.00;99532.89;1707571;83;21082;-62
2022/09/13 06:48:01;;;;;;;9.13;6.15;;;;;;;12.50;100.00;99528.47;1714236;83;20999;-62
2022/09/13 06:50:32;;;;;;;8.70;6.25;;;;;;;12.50;100.00;99532.59;1724766;83;21066;-63
2022/09/13 06:53:02;;;;;;;10.38;6.05;;;;;;;12.50;100.00;99532.59;1713884;83;21102;-63
2022/09/13 06:55:34;;;;;;;12.07;7.37;;;;;;;12.54;100.00;99533.27;1713658;83;21050;-63
2022/09/13 06:58:03;;;;;;;10.53;6.03;;;;;;;12.57;100.00;99537.46;1714318;83;21063;-63
2022/09/13 07:00:37;;;;;;;8.68;6.08;;;;;;;12.57;100.00;99535.55;1713998;83;21051;-63
2022/09/13 07:03:07;;;;;;;10.53;6.92;;;;;;;12.55;100.00;99536.85;1725479;83;21509;-62
2022/09/13 07:05:37;;;;;;;10.75;6.62;;;;;;;12.55;100.00;99540.44;1725598;82;21031;-63
2022/09/13 07:08:07;;;;;;;10.93;6.95;;;;;;;12.56;100.00;99544.86;1707716;83;21078;-63
2022/09/13 07:10:37;;;;;;;12.33;7.15;;;;;;;12.59;100.00;99544.94;1706415;83;20999;-62
2022/09/13 07:13:05;;;;;;;13.88;8.15;;;;;;;12.60;100.00;99546.61;1719740;82;21039;-64
2022/09/13 07:15:36;;;;;;;14.73;9.73;;;;;;;12.60;100.00;99547.98;1723968;82;21066;-62
2022/09/13 07:18:06;;;;;;;13.45;9.00;;;;;;;12.58;100.00;99554.25;1725320;83;21070;-62
2022/09/13 07:20:35;;;;;;;13.15;8.53;;;;;;;12.56;100.00;99559.98;1702957;82;21071;-63
2022/09/13 07:23:05;;;;;;;10.93;7.08;;;;;;;12.57;100.00;99556.16;1710917;82;21023;-65
2022/09/13 07:25:34;;;;;;;11.83;7.30;;;;;;;12.58;100.00;99557.00;1702898;83;21451;-64
2022/09/13 07:28:05;;;;;;;11.33;7.80;;;;;;;12.58;100.00;99557.00;1712164;83;21039;-65
2022/09/13 07:30:36;;;;;;;12.58;7.60;;;;;;;12.60;100.00;99560.36;1714895;83;21047;-64
2022/09/13 07:33:08;;;;;;;10.85;7.70;;;;;;;12.62;100.00;99563.70;1700790;83;21071;-64
2022/09/13 07:35:39;;;;;;;13.62;7.30;;;;;;;12.64;99.87;99555.53;1718729;83;21031;-66
2022/09/13 07:38:11;;;;;;;10.40;6.85;;;;;;;12.61;99.07;99558.75;1695623;83;21031;-65
2022/09/13 07:40:44;;;;;;;13.50;7.10;;;;;;;12.61;98.57;99555.16;1715641;81;21071;-64
2022/09/13 07:43:14;;;;;;;13.68;7.70;;;;;;;12.63;98.47;99548.90;1721416;82;21213;-63
2022/09/13 07:45:44;;;;;;;13.35;7.50;;;;;;;12.69;98.48;99558.42;1724735;82;20991;-65
2022/09/13 07:48:17;;;;;;;14.80;8.90;;;;;;;12.75;98.25;99554.45;1711373;83;21055;-64
2022/09/13 07:50:59;;;;;;;13.10;8.03;;;;;;;12.78;98.15;99552.61;1716885;82;21074;-63
2022/09/13 07:53:34;;;;;;;12.88;7.45;;;;;;;12.83;98.16;99550.00;1724680;83;21023;-64
2022/09/13 07:56:13;;;;;;;13.22;7.42;;;;;;;12.87;98.03;99552.05;1724261;83;21031;-64
2022/09/13 07:58:43;;;;;;;11.75;7.45;;;;;;;12.91;97.65;99549.67;1722368;83;21988;-65
2022/09/13 08:01:25;;;;;;;11.18;7.10;;;;;;;12.96;97.42;99544.30;1713070;83;21027;-66
2022/09/13 08:04:02;;;;;;;15.40;8.55;;;;;;;12.98;96.92;99547.12;1670563;85;21074;-67
2022/09/13 08:06:39;;;;;;;10.48;7.28;;;;;;;13.07;97.05;99536.66;1712606;82;21432;-65
2022/09/13 08:09:10;;;;;;;10.95;7.58;;;;;;;13.13;96.56;99538.47;1725234;83;21034;-67
2022/09/13 08:11:44;;;;;;;11.22;6.87;;;;;;;13.20;96.17;99538.39;1722371;83;21035;-66
2022/09/13 08:14:16;;;;;;;10.58;6.50;;;;;;;13.25;95.77;99538.52;1719361;82;21090;-63
2022/09/13 08:16:45;;;;;;;11.05;8.05;;;;;;;13.30;95.39;99539.49;1713659;82;21525;-69
2022/09/13 08:19:17;;;;;;;10.53;7.72;;;;;;;13.35;94.90;99541.53;1712335;82;21106;-65
2022/09/13 08:21:47;;;;;;;15.85;12.43;;;;;;;13.41;94.74;99540.59;1720022;83;21094;-66
2022/09/13 08:24:25;;;;;;;11.83;7.35;;;;;;;13.47;94.25;99544.30;1719623;83;21047;-65
2022/09/13 08:26:52;;;;;;;13.68;7.35;;;;;;;13.50;93.89;99543.82;1707704;83;21062;-65
2022/09/13 08:29:24;;;;;;;10.53;7.28;;;;;;;13.57;93.76;99544.01;1708007;83;21050;-68
2022/09/13 08:31:53;;;;;;;9.93;7.10;;;;;;;13.63;93.17;99537.55;1714563;83;21062;-66
2022/09/13 08:34:24;;;;;;;13.98;8.00;;;;;;;13.64;92.55;99536.47;1713521;83;21039;-66
2022/09/13 08:36:53;;;;;;;12.13;7.85;;;;;;;13.64;92.14;99533.72;1713978;83;21030;-65
2022/09/13 08:39:23;;;;;;;10.60;7.35;;;;;;;13.62;91.60;99533.12;1713794;83;21516;-66
2022/09/13 08:42:13;;;;;;;9.68;6.90;;;;;;;13.60;91.20;99535.81;1711969;81;21162;-67
2022/09/13 08:44:47;;;;;;;8.88;6.50;;;;;;;13.57;90.82;99537.13;1722848;83;21058;-65
2022/09/13 08:47:24;;;;;;;12.53;7.80;;;;;;;13.47;89.77;99539.63;1707992;82;21471;-66
2022/09/13 08:50:23;;;;;;;15.35;8.10;;;;;;;13.37;89.57;99545.42;1725383;83;21039;-66
2022/09/13 08:53:22;;;;;;;;;;;;;;;13.29;89.73;99536.44;1726311;83;22375;-66
2022/09/13 08:56:02;;;;;;;13.03;7.17;;;;;;;13.25;89.91;99535.77;1711735;83;20166;-67
2022/09/13 08:59:05;;;;;;;15.95;8.63;;;;;;;13.18;89.86;99537.25;1731818;82;21512;-65
2022/09/13 09:02:14;;;;;;;12.50;7.53;;;;;;;13.17;90.31;99533.36;1712955;82;21047;-67
2022/09/13 09:04:58;;;;;;;11.03;7.23;;;;;;;13.19;90.67;99524.34;1724121;83;21529;-67
2022/09/13 09:07:32;;;;;;;8.80;7.08;;;;;;;13.18;90.38;99532.29;1705691;83;21459;-65
2022/09/13 09:10:07;;;;;;;11.05;7.12;;;;;;;13.16;90.06;99526.99;1724739;82;21557;-71
2022/09/13 09:12:48;;;;;;;12.43;7.78;;;;;;;13.15;90.14;99524.48;1725367;83;21078;-68
2022/09/13 09:15:28;;;;;;;12.47;7.83;;;;;;;13.12;89.99;99520.83;1717314;83;21019;-67
2022/09/13 09:18:20;;;;;;;15.35;8.00;;;;;;;13.11;90.20;99527.40;1713093;83;20994;-68
2022/09/13 09:20:55;;;;;;;13.30;8.20;;;;;;;13.11;90.16;99531.52;1711327;82;21464;-66
2022/09/13 09:23:41;;;;;;;13.45;7.90;;;;;;;13.09;90.12;99530.38;1715737;83;21102;-69
2022/09/13 09:26:25;;;;;;;15.68;8.45;;;;;;;13.07;90.30;99522.06;1725290;83;20991;-70
2022/09/13 09:29:07;;;;;;;12.35;8.15;;;;;;;13.09;90.61;99525.42;1711002;82;21019;-69
2022/09/13 09:32:17;;;;;;;14.43;7.92;;;;;;;13.09;90.39;99528.17;1695353;83;21011;-68
2022/09/13 09:35:19;;;;;;;12.50;7.80;;;;;;;13.05;90.36;99526.97;1652911;86;21469;-69
2022/09/13 09:38:09;;;;;;;15.08;8.55;;;;;;;13.07;90.70;99526.19;1720054;82;21178;-69
2022/09/13 09:40:38;;;;;;;17.40;8.98;;;;;;;13.05;90.53;99529.18;1702020;83;21066;-68
2022/09/13 09:43:25;;;;;;;13.13;8.75;;;;;;;13.05;90.77;99521.47;1719896;82;21066;-67
2022/09/13 09:45:53;;;;;;;17.55;8.15;;;;;;;13.04;90.70;99526.13;1695641;83;21090;-67
2022/09/13 09:48:27;;;;;;;12.98;7.60;;;;;;;13.03;90.57;99531.86;1707942;83;21481;-69
2022/09/13 09:50:57;;;;;;;14.85;7.20;;;;;;;13.01;90.03;99530.72;1719991;82;21074;-70
2022/09/13 09:53:42;;;;;;;14.15;7.62;;;;;;;12.99;89.30;99530.09;1714651;83;21101;-68
2022/09/13 09:56:32;;;;;;;13.85;8.60;;;;;;;12.98;89.05;99529.78;1709380;83;21027;-68
2022/09/13 09:59:02;;;;;;;13.15;7.10;;;;;;;12.94;88.33;99539.04;1732380;82;21058;-69
2022/09/13 10:01:35;;;;;;;13.08;7.17;;;;;;;12.90;87.79;99532.87;1725598;83;21047;-68
2022/09/13 10:04:15;;;;;;;10.58;6.92;;;;;;;12.86;87.75;99532.50;1724481;82;21003;-67
2022/09/13 10:06:47;;;;;;;12.93;6.90;;;;;;;12.86;87.89;99529.75;1633368;87;21507;-67
2022/09/13 10:09:20;;;;;;;10.93;6.30;;;;;;;12.85;87.85;99530.82;1595673;88;21051;-66
2022/09/13 10:11:56;;;;;;;9.75;6.10;;;;;;;12.90;88.43;99536.99;1604334;87;21079;-69
2022/09/13 10:14:41;;;;;;;14.13;6.50;;;;;;;13.02;88.84;99532.40;1611395;88;21083;-68
2022/09/13 10:17:24;;;;;;;10.65;6.08;;;;;;;13.13;88.36;99538.47;1612021;88;21087;-68
2022/09/13 10:20:02;;;;;;;10.15;6.30;;;;;;;13.23;87.88;99533.80;1612607;88;21035;-68
2022/09/13 10:22:32;;;;;;;11.18;6.62;;;;;;;13.23;86.82;99531.05;1616538;87;22045;-68
2022/09/13 10:25:19;;;;;;;8.75;5.40;;;;;;;13.17;85.80;99533.36;1600125;88;21125;-67
2022/09/13 10:27:53;;;;;;;13.00;5.78;;;;;;;13.12;85.29;99538.70;1603161;88;21492;-67
2022/09/13 10:30:32;;;;;;;9.90;5.45;;;;;;;13.07;84.36;99538.03;1623127;86;21079;-67
2022/09/13 10:33:02;;;;;;;11.22;6.42;;;;;;;13.05;84.46;99547.59;1719546;83;21259;-68
2022/09/13 10:35:31;;;;;;;10.90;5.55;;;;;;;13.03;84.51;99545.08;1720453;83;21166;-67
2022/09/13 10:38:01;;;;;;;11.60;5.15;;;;;;;12.99;84.14;99546.05;1708028;83;21038;-66
2022/09/13 10:40:38;;;;;;;11.55;5.62;;;;;;;12.98;84.42;99542.16;1695565;83;21106;-69
2022/09/13 10:43:12;;;;;;;10.13;5.37;;;;;;;13.01;84.79;99545.84;1710861;83;21030;-67
2022/09/13 10:45:49;;;;;;;9.03;4.97;;;;;;;13.05;84.98;99550.34;1710812;83;21074;-67
2022/09/13 10:48:19;;;;;;;8.68;5.05;;;;;;;13.06;84.90;99543.23;1711025;83;21054;-68
2022/09/13 10:51:10;;;;;;;10.75;5.30;;;;;;;13.07;84.87;99544.06;1717465;83;21022;-67
2022/09/13 10:53:40;;;;;;;9.03;5.10;;;;;;;13.07;84.87;99542.69;1687989;83;21027;-67
2022/09/13 10:56:26;;;;;;;8.73;5.10;;;;;;;13.08;85.07;99536.13;1728301;83;21023;-68
2022/09/13 10:59:18;;;;;;;10.05;4.90;;;;;;;13.11;84.93;99540.61;1728631;81;21019;-69
2022/09/13 11:02:21;;;;;;;14.87;5.87;;;;;;;13.12;84.77;99546.95;1717428;81;21071;-68
2022/09/13 11:05:21;;;;;;;12.78;5.45;;;;;;;13.09;84.25;99543.30;1716491;83;21081;-69
2022/09/13 11:08:20;;;;;;;9.63;5.40;;;;;;;13.07;83.99;99545.44;1713832;83;21430;-67
2022/09/13 11:11:35;;;;;;;12.50;5.45;;;;;;;13.01;83.44;99554.09;1704061;83;21474;-68
2022/09/13 11:14:32;;;;;;;11.35;5.35;;;;;;;12.98;83.42;99545.75;1727666;81;21074;-68
2022/09/13 11:17:23;;;;;;;11.68;6.58;;;;;;;12.98;83.03;99548.50;1727812;83;20998;-68
2022/09/13 11:20:30;;;;;;;10.10;6.00;;;;;;;12.96;83.10;99539.64;1716386;83;21130;-67
2022/09/13 11:23:28;;;;;;;13.35;6.70;;;;;;;12.95;83.23;99542.63;1727171;83;21073;-67
2022/09/13 11:26:20;;;;;;;10.03;5.55;;;;;;;12.94;83.08;99539.04;1685591;83;21015;-66
2022/09/13 11:29:11;;;;;;;11.18;6.37;;;;;;;12.93;83.17;99538.73;1700877;83;21019;-66
2022/09/13 11:32:23;;;;;;;13.22;5.83;;;;;;;12.94;83.25;99545.91;1690262;83;21123;-67
2022/09/13 11:35:24;;;;;;;11.45;6.08;;;;;;;12.95;83.41;99542.63;1716699;83;21074;-66
2022/09/13 11:38:03;;;;;;;11.50;5.87;;;;;;;12.98;83.17;99540.78;1688351;83;21110;-67
2022/09/13 11:41:10;;;;;;;9.33;5.72;;;;;;;12.97;83.21;99541.31;1700133;82;21078;-67
2022/09/13 11:44:27;;;;;;;10.05;5.87;;;;;;;12.98;82.91;99540.25;1716739;82;21023;-69
2022/09/13 11:47:28;;;;;;;11.53;5.70;;;;;;;12.98;82.96;99540.78;1716734;83;21028;-69
2022/09/13 11:50:31;;;;;;;11.43;6.00;;;;;;;12.95;81.78;99536.59;1705985;83;21094;-66
2022/09/13 11:53:30;;;;;;;7.80;5.25;;;;;;;12.96;82.59;99543.77;1718029;83;21090;-66
2022/09/13 11:56:07;;;;;;;;;;;;;;;12.98;82.22;99539.41;1696728;83;21035;-68
2022/09/13 11:58:48;;;;;;;12.85;5.95;;;;;;;12.96;81.79;99535.52;1712233;82;20191;-66
2022/09/13 12:01:34;;;;;;;10.32;6.10;;;;;;;12.92;81.71;99536.22;1720332;82;21015;-67
2022/09/13 12:04:07;;;;;;;10.93;6.70;;;;;;;12.91;81.98;99538.67;1717616;83;21015;-69
2022/09/13 12:06:40;;;;;;;13.68;5.95;;;;;;;12.94;82.33;99550.04;1704740;83;21059;-68
2022/09/13 12:09:19;;;;;;;7.50;5.03;;;;;;;12.97;82.32;99548.20;1704782;83;21031;-68
2022/09/13 12:11:52;;;;;;;9.60;5.67;;;;;;;13.00;82.35;99544.14;1709562;83;21058;-69
2022/09/13 12:14:24;;;;;;;9.85;5.67;;;;;;;13.04;82.52;99545.91;1698715;83;21027;-71